Neal, Kansas
Current Conditions -  °F | °C
As of 5:52 AM on Monday 26 Jan 2015 (Local Time) from KCNU Reporting Station
Clear Clear  
Wind Chill: 16°   Ceiling: Unl
Heat Index: 22°   Visibility: 7mi
Dew Point: 21°   Wind: 5mph
Humidity: 96%   Direction: 190°S
Pressure: 30.09"   Gusts: NA
Location:  37.83°N, 96.08°W
Report Text: KCNU 261152Z AUTO 19004KT 7SM CLR M06/M06 A3009 RMK AO2 SLP196 I1000 I6000 T10561061 11006 21061 56016
Loading
Personal Weather Stations






























Interactive Weather Map New forecast layout! Learn more

10-Day Weather Forecast

Advertisements
Track Severe Weather on mobile